sensor_id;sensor_type;location;lat;lon;timestamp;pressure;altitude;pressure_sealevel;temperature;humidity
38530;BME280;24301;54.332;48.386;2023-04-15T00:01:24;99720.84;;;-3.36;39.20
38530;BME280;24301;54.332;48.386;2023-04-15T00:03:52;99643.47;;;-3.41;39.06
38530;BME280;24301;54.332;48.386;2023-04-15T00:06:19;99629.63;;;-3.43;39.15
38530;BME280;24301;54.332;48.386;2023-04-15T00:08:46;99664.94;;;-3.40;39.57
38530;BME280;24301;54.332;48.386;2023-04-15T00:11:12;99627.13;;;-3.41;38.71
38530;BME280;24301;54.332;48.386;2023-04-15T00:13:38;99671.66;;;-3.42;39.35
38530;BME280;24301;54.332;48.386;2023-04-15T00:16:05;99667.25;;;-3.45;39.43
38530;BME280;24301;54.332;48.386;2023-04-15T00:18:33;99643.31;;;-3.44;40.18
38530;BME280;24301;54.332;48.386;2023-04-15T00:21:01;99628.59;;;-3.47;40.42
38530;BME280;24301;54.332;48.386;2023-04-15T00:23:27;99618.28;;;-3.47;39.44
38530;BME280;24301;54.332;48.386;2023-04-15T00:25:53;99685.91;;;-3.49;39.51
38530;BME280;24301;54.332;48.386;2023-04-15T00:28:19;99628.28;;;-3.53;39.34
38530;BME280;24301;54.332;48.386;2023-04-15T00:30:46;99665.06;;;-3.54;39.70
38530;BME280;24301;54.332;48.386;2023-04-15T00:33:12;99792.66;;;-3.56;39.20
38530;BME280;24301;54.332;48.386;2023-04-15T00:35:39;99602.41;;;-3.56;38.41
38530;BME280;24301;54.332;48.386;2023-04-15T00:38:05;99637.50;;;-3.56;38.31
38530;BME280;24301;54.332;48.386;2023-04-15T00:40:32;99648.53;;;-3.59;38.71
38530;BME280;24301;54.332;48.386;2023-04-15T00:42:58;99675.91;;;-3.59;39.59
38530;BME280;24301;54.332;48.386;2023-04-15T00:45:25;99645.84;;;-3.61;39.18
38530;BME280;24301;54.332;48.386;2023-04-15T00:47:51;99662.03;;;-3.63;39.26
38530;BME280;24301;54.332;48.386;2023-04-15T00:50:16;99647.41;;;-3.64;39.22
38530;BME280;24301;54.332;48.386;2023-04-15T00:52:42;99745.09;;;-3.64;39.04
38530;BME280;24301;54.332;48.386;2023-04-15T00:55:09;99760.31;;;-3.67;40.03
38530;BME280;24301;54.332;48.386;2023-04-15T00:57:38;99710.78;;;-3.65;39.25
38530;BME280;24301;54.332;48.386;2023-04-15T01:00:06;99642.00;;;-3.69;39.28
38530;BME280;24301;54.332;48.386;2023-04-15T01:02:36;99670.13;;;-3.72;39.19
38530;BME280;24301;54.332;48.386;2023-04-15T01:05:03;99780.47;;;-3.75;39.24
38530;BME280;24301;54.332;48.386;2023-04-15T01:07:30;99687.06;;;-3.76;39.18
38530;BME280;24301;54.332;48.386;2023-04-15T01:09:56;99690.38;;;-3.78;39.15
38530;BME280;24301;54.332;48.386;2023-04-15T01:12:23;99702.41;;;-3.77;40.31
38530;BME280;24301;54.332;48.386;2023-04-15T01:14:52;99733.25;;;-3.77;40.02
38530;BME280;24301;54.332;48.386;2023-04-15T01:17:18;99672.38;;;-3.78;39.93
38530;BME280;24301;54.332;48.386;2023-04-15T01:19:44;99717.56;;;-3.82;40.53
38530;BME280;24301;54.332;48.386;2023-04-15T01:22:10;99697.88;;;-3.81;39.46
38530;BME280;24301;54.332;48.386;2023-04-15T01:24:37;99677.09;;;-3.86;40.11
38530;BME280;24301;54.332;48.386;2023-04-15T01:27:04;99676.03;;;-3.90;39.84
38530;BME280;24301;54.332;48.386;2023-04-15T01:29:36;99694.97;;;-3.87;41.01
38530;BME280;24301;54.332;48.386;2023-04-15T01:32:04;99692.41;;;-3.87;40.41
38530;BME280;24301;54.332;48.386;2023-04-15T01:34:49;99724.16;;;-3.87;41.49
38530;BME280;24301;54.332;48.386;2023-04-15T01:37:33;99765.16;;;-3.88;40.79
38530;BME280;24301;54.332;48.386;2023-04-15T01:39:59;99734.97;;;-3.93;40.06
38530;BME280;24301;54.332;48.386;2023-04-15T01:42:25;99701.66;;;-3.91;39.05
38530;BME280;24301;54.332;48.386;2023-04-15T01:44:52;99747.72;;;-3.94;39.58
38530;BME280;24301;54.332;48.386;2023-04-15T01:47:19;99775.19;;;-3.93;40.80
38530;BME280;24301;54.332;48.386;2023-04-15T01:49:47;99743.91;;;-3.86;40.30
38530;BME280;24301;54.332;48.386;2023-04-15T01:52:14;99786.66;;;-3.71;40.56
38530;BME280;24301;54.332;48.386;2023-04-15T01:54:41;99788.22;;;-3.58;39.73
38530;BME280;24301;54.332;48.386;2023-04-15T01:57:08;99762.66;;;-3.40;40.62
38530;BME280;24301;54.332;48.386;2023-04-15T01:59:35;99758.16;;;-3.28;39.34
38530;BME280;24301;54.332;48.386;2023-04-15T02:02:03;99771.69;;;-3.15;39.90
38530;BME280;24301;54.332;48.386;2023-04-15T02:04:30;99748.34;;;-2.85;39.89
38530;BME280;24301;54.332;48.386;2023-04-15T02:07:00;99718.22;;;-2.70;39.52
38530;BME280;24301;54.332;48.386;2023-04-15T02:09:27;99754.41;;;-2.50;38.45
38530;BME280;24301;54.332;48.386;2023-04-15T02:11:54;99711.94;;;-2.40;36.84
38530;BME280;24301;54.332;48.386;2023-04-15T02:14:21;99759.44;;;-2.17;37.33
38530;BME280;24301;54.332;48.386;2023-04-15T02:16:48;99741.88;;;-2.08;37.54
38530;BME280;24301;54.332;48.386;2023-04-15T02:19:16;99750.84;;;-1.81;37.79
38530;BME280;24301;54.332;48.386;2023-04-15T02:21:43;99749.41;;;-1.56;37.23
38530;BME280;24301;54.332;48.386;2023-04-15T02:24:10;99739.00;;;-1.40;35.47
38530;BME280;24301;54.332;48.386;2023-04-15T02:26:41;99767.28;;;-1.23;35.72
38530;BME280;24301;54.332;48.386;2023-04-15T02:29:08;99755.91;;;-1.27;34.48
38530;BME280;24301;54.332;48.386;2023-04-15T02:31:35;99794.88;;;-1.21;35.23
38530;BME280;24301;54.332;48.386;2023-04-15T02:34:06;99786.50;;;-0.97;35.68
38530;BME280;24301;54.332;48.386;2023-04-15T02:36:33;99780.94;;;-0.87;35.01
38530;BME280;24301;54.332;48.386;2023-04-15T02:39:01;99835.28;;;-0.83;34.01
38530;BME280;24301;54.332;48.386;2023-04-15T02:41:28;99821.63;;;-0.81;33.50
38530;BME280;24301;54.332;48.386;2023-04-15T02:43:57;99831.63;;;-0.49;34.35
38530;BME280;24301;54.332;48.386;2023-04-15T02:46:24;99790.94;;;-0.12;33.38
38530;BME280;24301;54.332;48.386;2023-04-15T02:48:51;99801.19;;;-0.14;32.83
38530;BME280;24301;54.332;48.386;2023-04-15T02:51:21;99762.25;;;-0.19;32.76
38530;BME280;24301;54.332;48.386;2023-04-15T02:53:48;99791.72;;;0.06;33.31
38530;BME280;24301;54.332;48.386;2023-04-15T02:56:16;99786.03;;;0.61;32.66
38530;BME280;24301;54.332;48.386;2023-04-15T02:58:45;99864.22;;;0.75;32.13
38530;BME280;24301;54.332;48.386;2023-04-15T03:01:12;99791.59;;;0.70;32.47
38530;BME280;24301;54.332;48.386;2023-04-15T03:03:40;99840.28;;;0.80;32.21
38530;BME280;24301;54.332;48.386;2023-04-15T03:06:07;99790.66;;;0.91;31.86
38530;BME280;24301;54.332;48.386;2023-04-15T03:08:35;99866.63;;;1.38;30.74
38530;BME280;24301;54.332;48.386;2023-04-15T03:11:03;99795.22;;;1.47;31.69
38530;BME280;24301;54.332;48.386;2023-04-15T03:13:31;99913.28;;;1.63;30.81
38530;BME280;24301;54.332;48.386;2023-04-15T03:16:00;99843.00;;;1.06;31.00
38530;BME280;24301;54.332;48.386;2023-04-15T03:18:28;99884.53;;;1.32;30.62
38530;BME280;24301;54.332;48.386;2023-04-15T03:20:55;99788.13;;;1.41;29.97
38530;BME280;24301;54.332;48.386;2023-04-15T03:23:22;99902.84;;;1.37;29.62
38530;BME280;24301;54.332;48.386;2023-04-15T03:25:50;99801.44;;;1.52;30.47
38530;BME280;24301;54.332;48.386;2023-04-15T03:28:17;99817.47;;;1.90;30.53
38530;BME280;24301;54.332;48.386;2023-04-15T03:30:44;99797.94;;;2.01;30.20
38530;BME280;24301;54.332;48.386;2023-04-15T03:33:11;99827.38;;;2.29;29.69
38530;BME280;24301;54.332;48.386;2023-04-15T03:35:39;99801.41;;;2.28;28.94
38530;BME280;24301;54.332;48.386;2023-04-15T03:38:06;99832.00;;;2.12;29.93
38530;BME280;24301;54.332;48.386;2023-04-15T03:40:33;99894.53;;;1.94;28.94
38530;BME280;24301;54.332;48.386;2023-04-15T03:43:00;99856.63;;;2.51;29.67
38530;BME280;24301;54.332;48.386;2023-04-15T03:45:27;99900.69;;;3.35;28.56
38530;BME280;24301;54.332;48.386;2023-04-15T03:47:54;99830.91;;;2.88;28.48
38530;BME280;24301;54.332;48.386;2023-04-15T03:50:21;99881.44;;;2.98;27.52
38530;BME280;24301;54.332;48.386;2023-04-15T03:52:48;99834.72;;;3.30;28.24
38530;BME280;24301;54.332;48.386;2023-04-15T03:55:16;99898.38;;;3.15;28.00
38530;BME280;24301;54.332;48.386;2023-04-15T03:57:43;99946.94;;;3.76;27.41
38530;BME280;24301;54.332;48.386;2023-04-15T04:00:10;99849.84;;;3.43;28.01
38530;BME280;24301;54.332;48.386;2023-04-15T04:02:40;99891.13;;;3.97;27.67
38530;BME280;24301;54.332;48.386;2023-04-15T04:05:07;99931.25;;;3.73;27.63
38530;BME280;24301;54.332;48.386;2023-04-15T04:07:34;99905.66;;;3.56;27.76
38530;BME280;24301;54.332;48.386;2023-04-15T04:10:01;99904.22;;;4.34;27.68
38530;BME280;24301;54.332;48.386;2023-04-15T04:12:29;99948.16;;;4.92;27.74
38530;BME280;24301;54.332;48.386;2023-04-15T04:14:56;99867.09;;;5.17;27.19
38530;BME280;24301;54.332;48.386;2023-04-15T04:17:23;99872.50;;;6.16;26.29
38530;BME280;24301;54.332;48.386;2023-04-15T04:19:50;99848.03;;;5.18;26.00
38530;BME280;24301;54.332;48.386;2023-04-15T04:22:21;99880.41;;;4.92;26.23
38530;BME280;24301;54.332;48.386;2023-04-15T04:24:49;99890.66;;;4.82;26.65
38530;BME280;24301;54.332;48.386;2023-04-15T04:27:17;99880.28;;;5.25;26.28
38530;BME280;24301;54.332;48.386;2023-04-15T04:29:44;99891.50;;;6.59;25.77
38530;BME280;24301;54.332;48.386;2023-04-15T04:32:13;99890.78;;;6.68;24.37
38530;BME280;24301;54.332;48.386;2023-04-15T04:34:40;99899.88;;;6.38;25.14
38530;BME280;24301;54.332;48.386;2023-04-15T04:37:07;99888.56;;;6.41;24.99
38530;BME280;24301;54.332;48.386;2023-04-15T04:39:34;99875.06;;;6.67;24.59
38530;BME280;24301;54.332;48.386;2023-04-15T04:42:01;99897.63;;;6.61;24.59
38530;BME280;24301;54.332;48.386;2023-04-15T04:44:28;99890.31;;;6.96;24.42
38530;BME280;24301;54.332;48.386;2023-04-15T04:46:55;99957.81;;;7.22;24.23
38530;BME280;24301;54.332;48.386;2023-04-15T04:49:22;99913.69;;;7.48;23.58
38530;BME280;24301;54.332;48.386;2023-04-15T04:51:49;99898.06;;;6.89;24.26
38530;BME280;24301;54.332;48.386;2023-04-15T04:54:17;99901.56;;;7.56;24.05
38530;BME280;24301;54.332;48.386;2023-04-15T04:56:44;99893.63;;;5.82;24.62
38530;BME280;24301;54.332;48.386;2023-04-15T04:59:11;99924.00;;;4.25;25.88
38530;BME280;24301;54.332;48.386;2023-04-15T05:01:38;99912.50;;;4.52;26.47
38530;BME280;24301;54.332;48.386;2023-04-15T05:04:05;99893.94;;;4.38;26.81
38530;BME280;24301;54.332;48.386;2023-04-15T05:06:33;99913.09;;;4.42;27.19
38530;BME280;24301;54.332;48.386;2023-04-15T05:09:02;99957.91;;;5.80;25.87
38530;BME280;24301;54.332;48.386;2023-04-15T05:11:29;99961.91;;;6.50;24.27
38530;BME280;24301;54.332;48.386;2023-04-15T05:13:56;99930.28;;;7.48;24.17
38530;BME280;24301;54.332;48.386;2023-04-15T05:16:25;99911.41;;;7.08;23.85
38530;BME280;24301;54.332;48.386;2023-04-15T05:18:52;99951.38;;;5.58;25.90
38530;BME280;24301;54.332;48.386;2023-04-15T05:21:19;99946.28;;;6.06;26.43
38530;BME280;24301;54.332;48.386;2023-04-15T05:23:46;99940.69;;;7.47;24.87
38530;BME280;24301;54.332;48.386;2023-04-15T05:26:13;99956.53;;;7.58;24.46
38530;BME280;24301;54.332;48.386;2023-04-15T05:28:40;99923.22;;;8.20;23.74
38530;BME280;24301;54.332;48.386;2023-04-15T05:31:07;99911.81;;;6.76;24.33
38530;BME280;24301;54.332;48.386;2023-04-15T05:33:35;99933.75;;;7.49;24.13
38530;BME280;24301;54.332;48.386;2023-04-15T05:36:02;99953.19;;;7.67;24.07
38530;BME280;24301;54.332;48.386;2023-04-15T05:38:29;99943.84;;;7.87;23.67
38530;BME280;24301;54.332;48.386;2023-04-15T05:40:56;99940.41;;;7.95;23.45
38530;BME280;24301;54.332;48.386;2023-04-15T05:43:23;99957.81;;;8.74;22.45
38530;BME280;24301;54.332;48.386;2023-04-15T05:45:50;99960.03;;;7.57;23.26
38530;BME280;24301;54.332;48.386;2023-04-15T05:48:17;99950.56;;;7.68;24.33
38530;BME280;24301;54.332;48.386;2023-04-15T05:50:44;99963.94;;;8.72;23.38
38530;BME280;24301;54.332;48.386;2023-04-15T05:53:11;99968.63;;;6.88;25.09
38530;BME280;24301;54.332;48.386;2023-04-15T05:55:38;99955.06;;;6.58;25.61
38530;BME280;24301;54.332;48.386;2023-04-15T05:58:05;99990.47;;;6.42;26.84
38530;BME280;24301;54.332;48.386;2023-04-15T06:00:32;99944.66;;;6.60;24.30
38530;BME280;24301;54.332;48.386;2023-04-15T06:03:00;99952.09;;;7.52;24.29
38530;BME280;24301;54.332;48.386;2023-04-15T06:05:27;99957.03;;;6.21;24.50
38530;BME280;24301;54.332;48.386;2023-04-15T06:07:54;99962.91;;;6.11;25.26
38530;BME280;24301;54.332;48.386;2023-04-15T06:10:21;99988.16;;;6.58;25.36
38530;BME280;24301;54.332;48.386;2023-04-15T06:12:48;99985.03;;;6.79;24.89
38530;BME280;24301;54.332;48.386;2023-04-15T06:15:15;100004.03;;;7.24;24.83
38530;BME280;24301;54.332;48.386;2023-04-15T06:17:42;100007.38;;;7.75;24.78
38530;BME280;24301;54.332;48.386;2023-04-15T06:20:10;99992.34;;;7.62;23.78
38530;BME280;24301;54.332;48.386;2023-04-15T06:22:37;99994.28;;;7.14;24.47
38530;BME280;24301;54.332;48.386;2023-04-15T06:25:05;99994.16;;;7.65;24.16
38530;BME280;24301;54.332;48.386;2023-04-15T06:27:34;99996.16;;;7.84;23.50
38530;BME280;24301;54.332;48.386;2023-04-15T06:30:01;100025.06;;;7.94;22.94
38530;BME280;24301;54.332;48.386;2023-04-15T06:32:28;99986.63;;;7.91;23.35
38530;BME280;24301;54.332;48.386;2023-04-15T06:34:55;100000.50;;;9.82;22.24
38530;BME280;24301;54.332;48.386;2023-04-15T06:37:22;100012.19;;;10.89;21.07
38530;BME280;24301;54.332;48.386;2023-04-15T06:39:49;100011.69;;;9.49;22.01
38530;BME280;24301;54.332;48.386;2023-04-15T06:42:17;100019.56;;;8.47;23.40
38530;BME280;24301;54.332;48.386;2023-04-15T06:44:44;100018.94;;;7.30;24.25
38530;BME280;24301;54.332;48.386;2023-04-15T06:47:11;100021.31;;;8.47;23.80
38530;BME280;24301;54.332;48.386;2023-04-15T06:49:40;100041.94;;;8.98;23.35
38530;BME280;24301;54.332;48.386;2023-04-15T06:52:09;100021.16;;;9.27;23.06
38530;BME280;24301;54.332;48.386;2023-04-15T06:54:37;100036.53;;;8.82;22.67
38530;BME280;24301;54.332;48.386;2023-04-15T06:57:04;100033.44;;;8.39;22.78
38530;BME280;24301;54.332;48.386;2023-04-15T06:59:31;100029.31;;;7.85;23.87
38530;BME280;24301;54.332;48.386;2023-04-15T07:01:58;100053.28;;;8.18;24.03
38530;BME280;24301;54.332;48.386;2023-04-15T07:04:25;100012.09;;;8.04;23.08
38530;BME280;24301;54.332;48.386;2023-04-15T07:06:53;100030.16;;;8.55;23.35
38530;BME280;24301;54.332;48.386;2023-04-15T07:09:22;100024.31;;;8.84;22.64
38530;BME280;24301;54.332;48.386;2023-04-15T07:11:49;100042.75;;;8.95;22.99
38530;BME280;24301;54.332;48.386;2023-04-15T07:14:17;100041.84;;;8.91;23.29
38530;BME280;24301;54.332;48.386;2023-04-15T07:16:44;100027.53;;;9.68;22.39
38530;BME280;24301;54.332;48.386;2023-04-15T07:19:11;100033.63;;;9.58;22.67
38530;BME280;24301;54.332;48.386;2023-04-15T07:21:38;100043.34;;;9.79;22.98
38530;BME280;24301;54.332;48.386;2023-04-15T07:24:05;100045.31;;;10.24;22.77
38530;BME280;24301;54.332;48.386;2023-04-15T07:26:32;100030.16;;;9.68;22.95
38530;BME280;24301;54.332;48.386;2023-04-15T07:28:59;100032.47;;;9.20;23.31
38530;BME280;24301;54.332;48.386;2023-04-15T07:31:26;100019.28;;;9.09;23.62
38530;BME280;24301;54.332;48.386;2023-04-15T07:33:54;100022.81;;;9.14;22.89
38530;BME280;24301;54.332;48.386;2023-04-15T07:36:20;100058.19;;;8.61;23.97
38530;BME280;24301;54.332;48.386;2023-04-15T07:38:47;100032.28;;;8.95;24.14
38530;BME280;24301;54.332;48.386;2023-04-15T07:41:14;100024.34;;;8.87;23.91
38530;BME280;24301;54.332;48.386;2023-04-15T07:43:42;100046.81;;;8.63;23.01
38530;BME280;24301;54.332;48.386;2023-04-15T07:46:09;100060.47;;;8.34;24.38
38530;BME280;24301;54.332;48.386;2023-04-15T07:48:36;100022.28;;;8.52;23.81
38530;BME280;24301;54.332;48.386;2023-04-15T07:51:03;100029.03;;;8.34;23.46
38530;BME280;24301;54.332;48.386;2023-04-15T07:53:30;99999.69;;;7.89;24.18
38530;BME280;24301;54.332;48.386;2023-04-15T07:55:58;100020.34;;;8.39;23.38
38530;BME280;24301;54.332;48.386;2023-04-15T07:58:25;100019.56;;;7.73;23.81
38530;BME280;24301;54.332;48.386;2023-04-15T08:00:53;99997.03;;;7.23;24.35
38530;BME280;24301;54.332;48.386;2023-04-15T08:03:22;100046.66;;;6.66;25.70
38530;BME280;24301;54.332;48.386;2023-04-15T08:05:49;100069.22;;;7.12;25.79
38530;BME280;24301;54.332;48.386;2023-04-15T08:08:16;100023.69;;;6.50;25.06
38530;BME280;24301;54.332;48.386;2023-04-15T08:10:43;100040.91;;;5.57;25.01
38530;BME280;24301;54.332;48.386;2023-04-15T08:13:10;100034.25;;;4.29;27.31
38530;BME280;24301;54.332;48.386;2023-04-15T08:15:37;100029.16;;;3.14;29.00
38530;BME280;24301;54.332;48.386;2023-04-15T08:18:04;100044.63;;;2.34;31.33
38530;BME280;24301;54.332;48.386;2023-04-15T08:20:32;100034.78;;;2.25;30.67
38530;BME280;24301;54.332;48.386;2023-04-15T08:22:59;100021.09;;;1.80;31.93
38530;BME280;24301;54.332;48.386;2023-04-15T08:25:26;100041.34;;;1.45;32.35
38530;BME280;24301;54.332;48.386;2023-04-15T08:27:56;100033.44;;;1.40;32.55
38530;BME280;24301;54.332;48.386;2023-04-15T08:30:23;100038.06;;;1.26;33.29
38530;BME280;24301;54.332;48.386;2023-04-15T08:32:50;100029.31;;;1.24;32.66
38530;BME280;24301;54.332;48.386;2023-04-15T08:35:17;100031.91;;;1.24;33.46
38530;BME280;24301;54.332;48.386;2023-04-15T08:37:44;100062.31;;;1.07;33.16
38530;BME280;24301;54.332;48.386;2023-04-15T08:40:11;100010.63;;;1.10;32.40
38530;BME280;24301;54.332;48.386;2023-04-15T08:42:44;100043.09;;;1.23;32.12
38530;BME280;24301;54.332;48.386;2023-04-15T08:45:15;100042.66;;;1.34;32.79
38530;BME280;24301;54.332;48.386;2023-04-15T08:47:44;100074.56;;;1.33;33.26
38530;BME280;24301;54.332;48.386;2023-04-15T08:50:13;100030.28;;;1.26;32.83
38530;BME280;24301;54.332;48.386;2023-04-15T08:52:42;100021.19;;;1.15;34.09
38530;BME280;24301;54.332;48.386;2023-04-15T08:55:10;100065.59;;;1.24;33.70
38530;BME280;24301;54.332;48.386;2023-04-15T08:57:39;100050.53;;;1.37;33.41
38530;BME280;24301;54.332;48.386;2023-04-15T09:00:06;100034.72;;;1.52;33.89
38530;BME280;24301;54.332;48.386;2023-04-15T09:02:35;100043.72;;;1.39;34.46
38530;BME280;24301;54.332;48.386;2023-04-15T09:05:02;100030.22;;;1.25;34.76
38530;BME280;24301;54.332;48.386;2023-04-15T09:07:34;100013.88;;;1.05;35.03
38530;BME280;24301;54.332;48.386;2023-04-15T09:10:03;100060.09;;;0.95;33.62
38530;BME280;24301;54.332;48.386;2023-04-15T09:12:33;100029.09;;;0.97;35.37
38530;BME280;24301;54.332;48.386;2023-04-15T09:15:01;100039.25;;;1.13;34.40
38530;BME280;24301;54.332;48.386;2023-04-15T09:17:32;100035.63;;;1.31;34.82
38530;BME280;24301;54.332;48.386;2023-04-15T09:20:19;100048.97;;;1.63;34.20
38530;BME280;24301;54.332;48.386;2023-04-15T09:22:47;100056.88;;;1.43;31.82
38530;BME280;24301;54.332;48.386;2023-04-15T09:27:52;100032.34;;;1.35;34.11
38530;BME280;24301;54.332;48.386;2023-04-15T09:30:19;100027.16;;;1.35;35.38
38530;BME280;24301;54.332;48.386;2023-04-15T09:32:51;100062.28;;;1.50;35.79
38530;BME280;24301;54.332;48.386;2023-04-15T09:35:19;100041.97;;;1.61;35.20
38530;BME280;24301;54.332;48.386;2023-04-15T09:37:48;100054.63;;;1.53;33.46
38530;BME280;24301;54.332;48.386;2023-04-15T09:40:33;100048.63;;;1.54;33.78
38530;BME280;24301;54.332;48.386;2023-04-15T09:43:01;100050.75;;;1.41;33.96
38530;BME280;24301;54.332;48.386;2023-04-15T09:45:28;100035.47;;;1.49;33.17
38530;BME280;24301;54.332;48.386;2023-04-15T09:47:57;100035.75;;;1.34;31.70
38530;BME280;24301;54.332;48.386;2023-04-15T09:50:28;100026.91;;;1.29;31.70
38530;BME280;24301;54.332;48.386;2023-04-15T09:52:55;100050.59;;;1.38;31.91
38530;BME280;24301;54.332;48.386;2023-04-15T09:55:22;100061.66;;;1.34;32.89
38530;BME280;24301;54.332;48.386;2023-04-15T09:57:49;100065.69;;;1.49;32.40
38530;BME280;24301;54.332;48.386;2023-04-15T10:00:16;100043.78;;;1.63;32.00
38530;BME280;24301;54.332;48.386;2023-04-15T10:02:44;100043.44;;;1.77;30.87
38530;BME280;24301;54.332;48.386;2023-04-15T10:05:14;100054.53;;;1.72;30.68
38530;BME280;24301;54.332;48.386;2023-04-15T10:07:43;100044.84;;;1.91;31.40
38530;BME280;24301;54.332;48.386;2023-04-15T10:10:10;100038.56;;;2.09;31.75
38530;BME280;24301;54.332;48.386;2023-04-15T10:12:40;100058.75;;;2.18;31.11
38530;BME280;24301;54.332;48.386;2023-04-15T10:15:14;100050.22;;;2.20;31.08
38530;BME280;24301;54.332;48.386;2023-04-15T10:17:43;100043.66;;;2.30;31.43
38530;BME280;24301;54.332;48.386;2023-04-15T10:20:11;100046.19;;;2.28;30.66
38530;BME280;24301;54.332;48.386;2023-04-15T10:22:41;100033.72;;;2.18;30.99
38530;BME280;24301;54.332;48.386;2023-04-15T10:25:09;100049.59;;;2.27;30.91
38530;BME280;24301;54.332;48.386;2023-04-15T10:27:39;100037.34;;;2.23;30.23
38530;BME280;24301;54.332;48.386;2023-04-15T10:30:08;100047.19;;;2.32;30.84
38530;BME280;24301;54.332;48.386;2023-04-15T10:32:35;100055.81;;;2.31;31.37
38530;BME280;24301;54.332;48.386;2023-04-15T10:35:04;100025.94;;;2.18;30.44
38530;BME280;24301;54.332;48.386;2023-04-15T10:37:34;100064.59;;;2.12;31.81
38530;BME280;24301;54.332;48.386;2023-04-15T10:40:26;100035.59;;;2.22;30.70
38530;BME280;24301;54.332;48.386;2023-04-15T10:43:00;100039.00;;;2.46;31.22
38530;BME280;24301;54.332;48.386;2023-04-15T10:45:32;100043.22;;;2.42;30.06
38530;BME280;24301;54.332;48.386;2023-04-15T10:48:06;100049.78;;;2.32;30.00
38530;BME280;24301;54.332;48.386;2023-04-15T10:50:33;100074.72;;;2.28;30.71
38530;BME280;24301;54.332;48.386;2023-04-15T10:53:03;100060.19;;;2.34;30.63
38530;BME280;24301;54.332;48.386;2023-04-15T10:55:32;100050.53;;;2.54;29.71
38530;BME280;24301;54.332;48.386;2023-04-15T10:58:01;100059.88;;;2.75;29.71
38530;BME280;24301;54.332;48.386;2023-04-15T11:00:30;100051.72;;;2.90;29.30
38530;BME280;24301;54.332;48.386;2023-04-15T11:03:08;100057.53;;;3.08;28.80
38530;BME280;24301;54.332;48.386;2023-04-15T11:08:05;100052.66;;;3.18;28.66
38530;BME280;24301;54.332;48.386;2023-04-15T11:15:38;100072.66;;;3.48;28.80
38530;BME280;24301;54.332;48.386;2023-04-15T11:18:19;100066.31;;;3.39;28.98
38530;BME280;24301;54.332;48.386;2023-04-15T11:20:51;100077.81;;;3.19;28.88
38530;BME280;24301;54.332;48.386;2023-04-15T11:23:31;100092.16;;;3.07;29.91
38530;BME280;24301;54.332;48.386;2023-04-15T11:26:00;100087.63;;;3.01;28.70
38530;BME280;24301;54.332;48.386;2023-04-15T11:28:29;100082.66;;;3.08;29.12
38530;BME280;24301;54.332;48.386;2023-04-15T11:30:57;100045.69;;;3.16;29.41
38530;BME280;24301;54.332;48.386;2023-04-15T11:33:24;100062.00;;;3.40;29.98
38530;BME280;24301;54.332;48.386;2023-04-15T11:35:52;100062.44;;;3.54;29.77
38530;BME280;24301;54.332;48.386;2023-04-15T11:38:20;100054.81;;;3.60;29.92
38530;BME280;24301;54.332;48.386;2023-04-15T11:40:49;100074.19;;;3.70;29.92
38530;BME280;24301;54.332;48.386;2023-04-15T11:43:19;100049.94;;;3.69;30.09
38530;BME280;24301;54.332;48.386;2023-04-15T11:45:58;100059.09;;;3.58;29.49
38530;BME280;24301;54.332;48.386;2023-04-15T11:48:28;100057.75;;;3.42;29.96
38530;BME280;24301;54.332;48.386;2023-04-15T11:53:25;100058.34;;;3.33;29.83
38530;BME280;24301;54.332;48.386;2023-04-15T11:56:00;100047.25;;;3.39;30.63
38530;BME280;24301;54.332;48.386;2023-04-15T11:58:26;100067.59;;;3.52;30.37
38530;BME280;24301;54.332;48.386;2023-04-15T12:00:57;100037.38;;;3.56;30.03
38530;BME280;24301;54.332;48.386;2023-04-15T12:03:35;100054.09;;;3.64;30.80
38530;BME280;24301;54.332;48.386;2023-04-15T12:06:05;100042.97;;;3.68;30.99
38530;BME280;24301;54.332;48.386;2023-04-15T12:14:11;100042.84;;;3.65;31.99
38530;BME280;24301;54.332;48.386;2023-04-15T12:16:45;100072.09;;;3.58;31.24
38530;BME280;24301;54.332;48.386;2023-04-15T12:19:15;100079.63;;;3.49;30.86
38530;BME280;24301;54.332;48.386;2023-04-15T12:21:44;100042.41;;;3.51;31.05
38530;BME280;24301;54.332;48.386;2023-04-15T12:24:11;100047.84;;;3.57;30.73
38530;BME280;24301;54.332;48.386;2023-04-15T12:26:44;100039.72;;;3.77;30.67
38530;BME280;24301;54.332;48.386;2023-04-15T12:29:11;100057.09;;;3.78;30.18
38530;BME280;24301;54.332;48.386;2023-04-15T12:34:18;100046.19;;;3.90;30.54
38530;BME280;24301;54.332;48.386;2023-04-15T12:36:50;100048.47;;;4.10;30.83
38530;BME280;24301;54.332;48.386;2023-04-15T12:39:16;100036.38;;;4.10;30.70
38530;BME280;24301;54.332;48.386;2023-04-15T12:41:42;100052.28;;;4.21;30.58
38530;BME280;24301;54.332;48.386;2023-04-15T12:44:07;100042.72;;;4.20;30.95
38530;BME280;24301;54.332;48.386;2023-04-15T12:46:33;100042.13;;;4.30;31.15
38530;BME280;24301;54.332;48.386;2023-04-15T12:49:00;100045.81;;;4.39;30.88
38530;BME280;24301;54.332;48.386;2023-04-15T12:51:25;100044.94;;;4.38;30.37
38530;BME280;24301;54.332;48.386;2023-04-15T12:53:51;100043.03;;;4.31;29.92
38530;BME280;24301;54.332;48.386;2023-04-15T12:56:17;100038.97;;;4.10;30.42
38530;BME280;24301;54.332;48.386;2023-04-15T12:58:43;100055.00;;;4.26;30.46
38530;BME280;24301;54.332;48.386;2023-04-15T13:01:09;100046.19;;;4.21;30.54
38530;BME280;24301;54.332;48.386;2023-04-15T13:03:35;100034.25;;;4.29;31.00
38530;BME280;24301;54.332;48.386;2023-04-15T13:06:01;100041.72;;;4.47;30.71
38530;BME280;24301;54.332;48.386;2023-04-15T13:08:30;100042.47;;;4.43;30.14
38530;BME280;24301;54.332;48.386;2023-04-15T13:10:56;100046.03;;;4.46;29.95
38530;BME280;24301;54.332;48.386;2023-04-15T13:13:22;100042.88;;;4.58;29.60
38530;BME280;24301;54.332;48.386;2023-04-15T13:15:48;100044.63;;;4.59;29.36
38530;BME280;24301;54.332;48.386;2023-04-15T13:18:15;100049.59;;;4.50;29.07